Time;durP1;ratioP1;P1;durP2;ratioP2;P2;SDS_P1;SDS_P2;PMS_P1;PMS_P2;Temp;Humidity;BMP_temperature;BMP_pressure;BME280_temperature;BME280_humidity;BME280_pressure;Samples;Min_cycle;Max_cycle;Signal;HPM_P1;HPM_P2
2022/11/28 00:00:55;;;;;;;177.20;81.70;;;;;;;;;;5076324;28;20682;-77
2022/11/28 00:03:21;;;;;;;189.73;85.65;;;;;;;;;;5058497;28;20060;-78
2022/11/28 00:05:47;;;;;;;181.07;81.55;;;;;;;;;;5058062;28;20044;-77
2022/11/28 00:08:12;;;;;;;189.23;84.68;;;;;;;;;;5058257;28;20416;-78
2022/11/28 00:10:39;;;;;;;198.63;84.18;;;;;;;;;;5060365;28;20029;-78
2022/11/28 00:13:04;;;;;;;175.45;81.78;;;;;;;;;;5063370;28;20029;-78
2022/11/28 00:15:30;;;;;;;192.32;79.40;;;;;;;;;;5076279;28;20417;-77
2022/11/28 00:17:55;;;;;;;183.43;81.28;;;;;;;;;;5075909;28;20028;-77
2022/11/28 00:20:21;;;;;;;192.65;83.68;;;;;;;;;;5075626;28;20032;-78
2022/11/28 00:22:46;;;;;;;205.70;89.85;;;;;;;;;;5058157;28;20032;-78
2022/11/28 00:25:11;;;;;;;203.60;88.63;;;;;;;;;;5057978;28;20029;-78
2022/11/28 00:27:37;;;;;;;184.98;82.07;;;;;;;;;;5075735;28;20028;-78
2022/11/28 00:30:03;;;;;;;178.68;81.38;;;;;;;;;;5075661;28;20024;-77
2022/11/28 00:32:28;;;;;;;172.70;79.07;;;;;;;;;;5060116;28;20032;-78
2022/11/28 00:34:54;;;;;;;181.70;82.95;;;;;;;;;;5059149;28;20083;-78
2022/11/28 00:37:19;;;;;;;186.40;82.13;;;;;;;;;;5057396;28;20123;-78
2022/11/28 00:39:45;;;;;;;180.80;81.07;;;;;;;;;;5057371;28;20024;-77
2022/11/28 00:42:10;;;;;;;174.13;79.05;;;;;;;;;;5057697;28;20036;-78
2022/11/28 00:44:36;;;;;;;173.13;80.13;;;;;;;;;;5024116;28;20071;-78
2022/11/28 00:47:01;;;;;;;167.77;78.15;;;;;;;;;;5041062;28;20043;-79
2022/11/28 00:49:27;;;;;;;166.00;75.35;;;;;;;;;;5057106;28;20032;-78
2022/11/28 00:51:52;;;;;;;171.48;78.30;;;;;;;;;;5024487;28;20024;-78
2022/11/28 00:54:17;;;;;;;170.13;77.97;;;;;;;;;;5060377;28;20138;-78
2022/11/28 00:56:43;;;;;;;162.57;77.05;;;;;;;;;;5043182;28;20025;-77
2022/11/28 00:59:08;;;;;;;165.07;77.10;;;;;;;;;;5057348;28;20024;-78
2022/11/28 01:01:36;;;;;;;161.77;77.55;;;;;;;;;;5075371;28;20123;-78
2022/11/28 01:04:03;;;;;;;164.85;77.78;;;;;;;;;;5074758;28;20032;-77
2022/11/28 01:06:31;;;;;;;173.80;77.72;;;;;;;;;;5074983;28;20058;-78
2022/11/28 01:08:57;;;;;;;175.32;78.07;;;;;;;;;;5040732;28;20025;-77
2022/11/28 01:11:23;;;;;;;164.20;74.90;;;;;;;;;;5040539;28;20110;-77
2022/11/28 01:13:48;;;;;;;157.10;72.07;;;;;;;;;;5074936;28;20470;-77
2022/11/28 01:16:14;;;;;;;165.90;73.20;;;;;;;;;;5057649;28;20032;-77
2022/11/28 01:18:39;;;;;;;161.65;71.82;;;;;;;;;;5058416;28;20038;-77
2022/11/28 01:21:05;;;;;;;164.82;72.70;;;;;;;;;;5074668;28;20047;-77
2022/11/28 01:23:31;;;;;;;156.38;70.28;;;;;;;;;;5023789;28;20040;-78
2022/11/28 01:25:56;;;;;;;148.52;65.47;;;;;;;;;;5056942;28;20461;-77
2022/11/28 01:28:22;;;;;;;148.38;66.05;;;;;;;;;;5056778;28;20028;-77
2022/11/28 01:30:47;;;;;;;148.13;64.85;;;;;;;;;;5056712;28;20028;-77
2022/11/28 01:33:12;;;;;;;157.73;66.55;;;;;;;;;;5040607;28;20059;-77
2022/11/28 01:35:38;;;;;;;148.88;63.85;;;;;;;;;;5023767;28;20078;-80
2022/11/28 01:38:04;;;;;;;152.63;63.47;;;;;;;;;;5057964;28;20456;-77
2022/11/28 01:40:29;;;;;;;138.57;59.75;;;;;;;;;;5041292;28;20043;-76
2022/11/28 01:42:55;;;;;;;138.27;60.63;;;;;;;;;;5075493;28;20029;-78
2022/11/28 01:45:22;;;;;;;150.88;63.88;;;;;;;;;;5033160;28;20040;-77
2022/11/28 01:47:49;;;;;;;148.30;63.40;;;;;;;;;;5040055;28;20039;-77
2022/11/28 01:50:15;;;;;;;144.05;61.35;;;;;;;;;;5040074;28;20383;-77
2022/11/28 01:52:42;;;;;;;139.88;60.75;;;;;;;;;;5039800;28;20039;-78
2022/11/28 01:55:08;;;;;;;125.72;56.47;;;;;;;;;;5039839;28;20036;-76
2022/11/28 01:57:33;;;;;;;136.02;58.85;;;;;;;;;;5056297;28;20028;-77
2022/11/28 02:00:08;;;;;;;131.10;56.08;;;;;;;;;;5042264;28;20380;-77
2022/11/28 02:02:37;;;;;;;130.85;57.10;;;;;;;;;;5041179;28;20082;-77
2022/11/28 02:05:03;;;;;;;135.73;58.53;;;;;;;;;;5023521;28;20033;-78
2022/11/28 02:07:29;;;;;;;129.57;59.10;;;;;;;;;;5056342;28;20442;-76
2022/11/28 02:09:54;;;;;;;141.13;60.35;;;;;;;;;;5074215;28;20025;-76
2022/11/28 02:12:37;;;;;;;127.65;56.78;;;;;;;;;;5023194;28;20028;-77
2022/11/28 02:15:12;;;;;;;129.02;57.00;;;;;;;;;;5056261;28;20109;-77
2022/11/28 02:17:41;;;;;;;133.32;59.17;;;;;;;;;;5056756;28;20062;-77
2022/11/28 02:20:28;;;;;;;138.82;59.03;;;;;;;;;;5056066;28;20082;-77
2022/11/28 02:23:14;;;;;;;127.20;57.08;;;;;;;;;;5074214;28;20028;-78
2022/11/28 02:26:02;;;;;;;130.30;56.17;;;;;;;;;;5055920;28;20056;-78
2022/11/28 02:28:43;;;;;;;123.47;54.83;;;;;;;;;;5056215;28;20126;-77
2022/11/28 02:31:11;;;;;;;;;;;;;;;;;;5074038;28;20438;-77
2022/11/28 02:33:59;;;;;;;126.38;54.65;;;;;;;;;;5073684;28;19961;-77
2022/11/28 02:36:34;;;;;;;126.65;55.58;;;;;;;;;;5039482;28;20029;-77
2022/11/28 02:39:08;;;;;;;132.48;57.17;;;;;;;;;;5023464;28;20025;-77
2022/11/28 02:41:42;;;;;;;133.65;55.60;;;;;;;;;;5073625;28;20497;-77
2022/11/28 02:44:14;;;;;;;135.05;56.65;;;;;;;;;;5078747;28;20370;-76
2022/11/28 02:46:56;;;;;;;130.85;55.38;;;;;;;;;;5042029;28;20371;-77
2022/11/28 02:49:45;;;;;;;120.20;52.75;;;;;;;;;;5055731;28;20430;-76
2022/11/28 02:52:28;;;;;;;121.03;52.78;;;;;;;;;;5073421;28;20465;-77
2022/11/28 02:54:54;;;;;;;118.38;53.72;;;;;;;;;;5039148;28;20119;-77
2022/11/28 02:57:19;;;;;;;116.40;52.45;;;;;;;;;;5039038;28;20060;-77
2022/11/28 02:59:47;;;;;;;114.32;50.30;;;;;;;;;;5038988;28;20439;-77
2022/11/28 03:02:21;;;;;;;112.93;50.17;;;;;;;;;;5041404;28;20119;-77
2022/11/28 03:05:06;;;;;;;113.18;49.47;;;;;;;;;;5044783;28;20458;-77
2022/11/28 03:07:41;;;;;;;119.47;50.30;;;;;;;;;;5045359;28;20029;-76
2022/11/28 03:10:24;;;;;;;114.03;50.63;;;;;;;;;;5077345;28;20127;-79
2022/11/28 03:13:11;;;;;;;114.82;50.30;;;;;;;;;;5042659;28;20090;-77
2022/11/28 03:15:43;;;;;;;111.20;50.28;;;;;;;;;;5077027;28;20442;-76
2022/11/28 03:18:22;;;;;;;119.75;51.08;;;;;;;;;;5043165;28;20029;-77
2022/11/28 03:20:53;;;;;;;115.97;50.78;;;;;;;;;;5043205;28;20020;-78
2022/11/28 03:23:20;;;;;;;123.05;52.65;;;;;;;;;;5077107;28;20056;-77
2022/11/28 03:25:56;;;;;;;112.85;51.85;;;;;;;;;;5026367;28;20017;-78
2022/11/28 03:28:32;;;;;;;117.63;51.47;;;;;;;;;;5047701;28;20028;-78
2022/11/28 03:31:07;;;;;;;114.10;49.75;;;;;;;;;;5042658;28;20430;-78
2022/11/28 03:33:35;;;;;;;108.40;49.33;;;;;;;;;;5042536;28;20071;-78
2022/11/28 03:36:32;;;;;;;113.65;50.70;;;;;;;;;;5059408;28;20056;-77
2022/11/28 03:39:05;;;;;;;106.75;48.10;;;;;;;;;;5043642;28;20083;-77
2022/11/28 03:41:42;;;;;;;107.13;49.38;;;;;;;;;;5042245;28;20469;-77
2022/11/28 03:44:10;;;;;;;109.75;47.60;;;;;;;;;;5042598;28;20107;-77
2022/11/28 03:46:38;;;;;;;105.05;46.58;;;;;;;;;;5042271;28;20047;-78
2022/11/28 03:49:03;;;;;;;106.18;46.45;;;;;;;;;;5059558;28;20036;-77
2022/11/28 03:51:31;;;;;;;105.28;46.08;;;;;;;;;;5042568;28;20032;-77
2022/11/28 03:54:07;;;;;;;102.60;45.58;;;;;;;;;;5041879;28;20113;-78
2022/11/28 03:56:51;;;;;;;101.10;43.97;;;;;;;;;;5042464;28;20036;-77
2022/11/28 03:59:48;;;;;;;96.47;43.03;;;;;;;;;;5060399;28;20029;-77
2022/11/28 04:02:35;;;;;;;95.90;41.30;;;;;;;;;;5057202;28;20069;-78
2022/11/28 04:05:07;;;;;;;92.68;40.70;;;;;;;;;;5043787;28;20032;-78
2022/11/28 04:07:55;;;;;;;90.10;40.65;;;;;;;;;;5043174;28;20056;-77
2022/11/28 04:10:28;;;;;;;95.35;40.80;;;;;;;;;;5076841;28;20033;-78
2022/11/28 04:12:56;;;;;;;93.22;40.00;;;;;;;;;;5075486;28;20029;-77
2022/11/28 04:15:38;;;;;;;89.88;40.15;;;;;;;;;;5076258;28;20135;-77
2022/11/28 04:18:31;;;;;;;90.88;39.08;;;;;;;;;;5058228;28;20039;-76
2022/11/28 04:21:26;;;;;;;78.15;36.90;;;;;;;;;;5058589;28;20051;-78
2022/11/28 04:23:54;;;;;;;80.88;36.20;;;;;;;;;;5058225;28;20477;-77
2022/11/28 04:26:29;;;;;;;91.03;41.03;;;;;;;;;;5041436;28;20029;-77
2022/11/28 04:28:55;;;;;;;85.65;38.15;;;;;;;;;;5026359;28;20024;-77
2022/11/28 04:31:21;;;;;;;81.47;37.15;;;;;;;;;;5041929;28;20035;-78
2022/11/28 04:33:49;;;;;;;83.85;37.38;;;;;;;;;;5026079;28;20436;-77
2022/11/28 04:36:15;;;;;;;83.35;39.10;;;;;;;;;;5041452;28;20036;-77
2022/11/28 04:38:41;;;;;;;82.60;39.08;;;;;;;;;;5041905;28;20024;-77
2022/11/28 04:41:12;;;;;;;77.35;35.40;;;;;;;;;;5041696;28;20035;-77
2022/11/28 04:43:42;;;;;;;78.18;36.85;;;;;;;;;;5041648;28;20033;-77
2022/11/28 04:46:13;;;;;;;82.45;37.17;;;;;;;;;;5057863;28;20151;-77
2022/11/28 04:48:39;;;;;;;81.50;38.85;;;;;;;;;;5050057;28;20029;-78
2022/11/28 04:51:16;;;;;;;77.47;36.85;;;;;;;;;;5050616;28;20513;-77
2022/11/28 04:54:09;;;;;;;81.05;36.92;;;;;;;;;;5075457;28;20103;-77
2022/11/28 04:57:03;;;;;;;83.13;39.25;;;;;;;;;;5055784;28;20177;-76
2022/11/28 04:59:29;;;;;;;82.22;40.25;;;;;;;;;;5054990;28;20040;-77
2022/11/28 05:01:54;;;;;;;88.55;42.47;;;;;;;;;;5040817;28;20113;-77
2022/11/28 05:04:20;;;;;;;85.95;42.75;;;;;;;;;;5057375;28;20044;-79
2022/11/28 05:06:45;;;;;;;84.18;41.92;;;;;;;;;;5075045;28;20067;-79
2022/11/28 05:09:11;;;;;;;83.20;40.22;;;;;;;;;;5074833;28;20446;-81
2022/11/28 05:11:37;;;;;;;77.40;38.08;;;;;;;;;;5075060;28;20056;-82
2022/11/28 05:14:02;;;;;;;80.65;36.80;;;;;;;;;;5077278;28;20029;-83
2022/11/28 05:16:28;;;;;;;76.47;36.58;;;;;;;;;;5064758;28;20073;-83
2022/11/28 05:18:53;;;;;;;81.88;36.13;;;;;;;;;;5058581;28;20024;-84
2022/11/28 05:21:19;;;;;;;75.75;35.85;;;;;;;;;;5057161;28;20131;-83
2022/11/28 05:23:44;;;;;;;81.85;35.17;;;;;;;;;;5023717;28;20052;-83
2022/11/28 05:26:19;;;;;;;74.05;34.67;;;;;;;;;;5040485;28;20032;-83
2022/11/28 05:28:46;;;;;;;65.22;31.27;;;;;;;;;;5040591;28;20028;-82
2022/11/28 05:31:12;;;;;;;68.40;31.67;;;;;;;;;;5040724;28;20386;-83
2022/11/28 05:33:37;;;;;;;70.18;31.70;;;;;;;;;;5040257;28;20028;-83
2022/11/28 05:36:07;;;;;;;69.75;32.00;;;;;;;;;;5056843;28;20033;-83
2022/11/28 05:38:33;;;;;;;72.10;32.75;;;;;;;;;;5069796;28;20036;-83
2022/11/28 05:40:59;;;;;;;65.97;30.95;;;;;;;;;;5040538;28;20036;-83
2022/11/28 05:43:25;;;;;;;68.03;31.20;;;;;;;;;;5040808;28;20056;-82
2022/11/28 05:45:50;;;;;;;63.70;29.75;;;;;;;;;;5075163;28;20066;-82
2022/11/28 05:48:16;;;;;;;63.08;29.88;;;;;;;;;;5078559;28;20080;-82
2022/11/28 05:50:43;;;;;;;63.20;30.05;;;;;;;;;;5083956;28;20148;-83
2022/11/28 05:53:08;;;;;;;65.65;31.77;;;;;;;;;;5046757;28;20035;-81
2022/11/28 05:55:34;;;;;;;64.00;31.63;;;;;;;;;;5051550;28;20047;-80
2022/11/28 05:58:00;;;;;;;81.68;35.78;;;;;;;;;;5027398;28;20063;-82
2022/11/28 06:00:26;;;;;;;94.20;39.85;;;;;;;;;;5071847;28;20582;-82
2022/11/28 06:02:54;;;;;;;94.63;38.78;;;;;;;;;;5069022;28;20049;-79
2022/11/28 06:05:19;;;;;;;82.93;36.90;;;;;;;;;;5073559;28;20052;-79
2022/11/28 06:07:47;;;;;;;70.60;33.97;;;;;;;;;;5057420;28;20052;-82
2022/11/28 06:10:12;;;;;;;71.85;34.10;;;;;;;;;;5077689;28;20048;-81
2022/11/28 06:12:38;;;;;;;69.05;32.35;;;;;;;;;;5040817;28;20434;-82
2022/11/28 06:15:04;;;;;;;68.25;31.58;;;;;;;;;;5055000;28;20135;-82
2022/11/28 06:17:30;;;;;;;64.75;31.27;;;;;;;;;;5072421;28;20033;-83
2022/11/28 06:19:55;;;;;;;66.75;32.40;;;;;;;;;;5076891;28;20070;-80
2022/11/28 06:22:27;;;;;;;71.82;31.88;;;;;;;;;;5055320;28;20032;-83
2022/11/28 06:24:52;;;;;;;66.93;31.73;;;;;;;;;;5078641;28;20115;-82
2022/11/28 06:27:24;;;;;;;72.70;35.13;;;;;;;;;;5057304;28;20481;-84
2022/11/28 06:29:50;;;;;;;84.05;42.47;;;;;;;;;;5074081;28;20028;-83
2022/11/28 06:32:15;;;;;;;89.10;43.85;;;;;;;;;;5099781;22;20178;-83
2022/11/28 06:34:41;;;;;;;88.43;44.50;;;;;;;;;;5074648;28;20040;-84
2022/11/28 06:37:06;;;;;;;95.68;47.45;;;;;;;;;;5077094;28;20024;-80
2022/11/28 06:39:31;;;;;;;86.60;42.47;;;;;;;;;;5078446;28;20020;-81
2022/11/28 06:41:57;;;;;;;130.57;54.13;;;;;;;;;;5063916;28;20038;-82
2022/11/28 06:44:32;;;;;;;141.35;54.92;;;;;;;;;;5062888;28;20058;-81
2022/11/28 06:46:57;;;;;;;96.45;41.97;;;;;;;;;;5064726;28;20024;-83
2022/11/28 06:49:23;;;;;;;73.38;35.47;;;;;;;;;;5065502;28;20021;-81
2022/11/28 06:51:49;;;;;;;75.40;35.63;;;;;;;;;;5082294;28;20031;-83
2022/11/28 06:54:14;;;;;;;77.68;36.85;;;;;;;;;;5085361;28;20088;-83
2022/11/28 06:56:40;;;;;;;78.97;38.50;;;;;;;;;;5052251;28;20046;-81
2022/11/28 06:59:05;;;;;;;75.53;34.70;;;;;;;;;;5103499;28;20040;-81
2022/11/28 07:01:33;;;;;;;69.30;32.92;;;;;;;;;;5063506;28;20040;-79
2022/11/28 07:03:58;;;;;;;72.75;33.55;;;;;;;;;;5080676;28;20060;-81
2022/11/28 07:06:24;;;;;;;76.20;34.72;;;;;;;;;;5097340;28;20388;-81
2022/11/28 07:08:50;;;;;;;75.78;37.10;;;;;;;;;;5081061;28;20059;-81
2022/11/28 07:11:21;;;;;;;79.63;39.05;;;;;;;;;;5079493;28;20096;-80
2022/11/28 07:13:46;;;;;;;80.30;40.70;;;;;;;;;;5077136;28;20114;-82
2022/11/28 07:16:17;;;;;;;86.30;42.75;;;;;;;;;;5096211;28;20023;-81
2022/11/28 07:18:43;;;;;;;107.50;50.47;;;;;;;;;;5074064;28;20036;-81
2022/11/28 07:21:08;;;;;;;86.50;40.95;;;;;;;;;;5077568;28;20268;-81
2022/11/28 07:23:34;;;;;;;91.00;41.30;;;;;;;;;;5096310;28;20039;-81
2022/11/28 07:26:00;;;;;;;81.30;37.25;;;;;;;;;;5062171;28;20040;-83
2022/11/28 07:28:26;;;;;;;72.97;36.33;;;;;;;;;;5100741;28;20028;-81
2022/11/28 07:31:04;;;;;;;81.55;37.05;;;;;;;;;;5079748;28;20525;-82
2022/11/28 07:33:30;;;;;;;82.40;36.15;;;;;;;;;;5077226;28;20056;-80
2022/11/28 07:35:59;;;;;;;75.70;34.35;;;;;;;;;;5073831;28;20492;-81
2022/11/28 07:38:25;;;;;;;70.28;32.15;;;;;;;;;;5074953;28;20410;-81
2022/11/28 07:40:50;;;;;;;59.25;29.83;;;;;;;;;;5061098;28;20028;-82
2022/11/28 07:43:16;;;;;;;67.22;30.95;;;;;;;;;;5078344;28;20043;-81
2022/11/28 07:45:41;;;;;;;66.88;28.92;;;;;;;;;;5077760;28;20109;-83
2022/11/28 07:48:07;;;;;;;64.88;29.92;;;;;;;;;;5077252;28;20477;-81
2022/11/28 07:50:32;;;;;;;61.97;29.40;;;;;;;;;;5075993;28;20029;-79
2022/11/28 07:52:58;;;;;;;69.75;31.98;;;;;;;;;;5070295;28;20061;-83
2022/11/28 07:55:24;;;;;;;65.63;31.52;;;;;;;;;;5058346;28;20343;-83
2022/11/28 07:57:49;;;;;;;68.15;31.70;;;;;;;;;;5058021;28;20385;-82
2022/11/28 08:00:15;;;;;;;69.03;32.53;;;;;;;;;;5040116;28;20037;-79
2022/11/28 08:02:41;;;;;;;71.78;33.30;;;;;;;;;;5056223;28;20375;-83
2022/11/28 08:05:06;;;;;;;69.65;33.97;;;;;;;;;;5056401;28;20048;-83
2022/11/28 08:07:35;;;;;;;65.13;31.42;;;;;;;;;;5058028;28;20060;-84
2022/11/28 08:10:00;;;;;;;70.78;34.50;;;;;;;;;;5055135;28;20040;-82
2022/11/28 08:12:25;;;;;;;71.30;33.85;;;;;;;;;;5054640;28;20029;-80
2022/11/28 08:14:51;;;;;;;77.05;36.28;;;;;;;;;;5054637;28;20048;-82
2022/11/28 08:17:16;;;;;;;80.32;37.92;;;;;;;;;;5054693;28;20029;-82
2022/11/28 08:19:42;;;;;;;89.53;41.17;;;;;;;;;;5057825;28;20033;-84
2022/11/28 08:22:07;;;;;;;85.68;41.15;;;;;;;;;;5038742;28;20068;-83
2022/11/28 08:24:33;;;;;;;95.40;43.92;;;;;;;;;;5058455;28;20032;-82
2022/11/28 08:27:13;;;;;;;91.57;42.63;;;;;;;;;;5056854;28;20025;-82
2022/11/28 08:29:39;;;;;;;;;;;;;;;;;;5059646;28;20031;-82
2022/11/28 08:32:07;;;;;;;91.78;44.42;;;;;;;;;;5057233;28;19916;-82
2022/11/28 08:34:33;;;;;;;90.45;42.17;;;;;;;;;;5052997;28;20025;-81
2022/11/28 08:37:13;;;;;;;88.00;41.63;;;;;;;;;;5058298;28;20112;-81
2022/11/28 08:39:39;;;;;;;89.10;41.50;;;;;;;;;;5054126;28;20045;-79
2022/11/28 08:42:04;;;;;;;95.88;45.70;;;;;;;;;;5051714;28;20514;-81
2022/11/28 08:44:29;;;;;;;95.88;45.72;;;;;;;;;;5054888;28;20131;-79
2022/11/28 08:46:55;;;;;;;100.53;45.65;;;;;;;;;;5053591;28;20044;-80
2022/11/28 08:49:23;;;;;;;92.63;43.88;;;;;;;;;;5057593;28;20029;-80
2022/11/28 08:51:58;;;;;;;97.50;47.20;;;;;;;;;;5041068;28;20028;-79
2022/11/28 08:54:27;;;;;;;99.03;46.42;;;;;;;;;;5066491;28;20024;-81
2022/11/28 08:56:53;;;;;;;100.32;48.50;;;;;;;;;;5075031;28;20449;-81
2022/11/28 08:59:18;;;;;;;103.65;50.47;;;;;;;;;;5073177;28;20043;-80
2022/11/28 09:01:44;;;;;;;106.10;50.38;;;;;;;;;;5094758;28;20077;-79
2022/11/28 09:04:25;;;;;;;108.13;51.10;;;;;;;;;;5073010;28;20525;-81
2022/11/28 09:06:50;;;;;;;114.95;49.58;;;;;;;;;;5043744;28;20043;-84
2022/11/28 09:09:16;;;;;;;105.47;52.10;;;;;;;;;;5037088;28;20028;-82
2022/11/28 09:11:41;;;;;;;113.68;54.90;;;;;;;;;;5073109;28;20024;-83
2022/11/28 09:14:26;;;;;;;103.53;50.40;;;;;;;;;;5056320;28;20035;-83
2022/11/28 09:16:51;;;;;;;103.07;51.33;;;;;;;;;;5062883;28;20033;-84
2022/11/28 09:22:18;;;;;;;111.05;53.17;;;;;;;;;;4930057;29;20050;-85
2022/11/28 09:24:54;;;;;;;104.55;51.15;;;;;;;;;;5000517;28;20050;-78
2022/11/28 09:27:20;;;;;;;99.63;45.88;;;;;;;;;;5005658;28;20040;-82
2022/11/28 09:29:46;;;;;;;102.00;47.75;;;;;;;;;;5014406;28;20033;-81
2022/11/28 09:32:11;;;;;;;93.47;44.10;;;;;;;;;;5015004;28;20558;-80
2022/11/28 09:34:36;;;;;;;102.18;47.90;;;;;;;;;;5014216;28;20037;-81
2022/11/28 09:37:02;;;;;;;93.00;47.08;;;;;;;;;;5030354;28;20099;-82
2022/11/28 09:39:27;;;;;;;106.68;49.33;;;;;;;;;;5026459;28;20134;-81
2022/11/28 09:41:57;;;;;;;99.78;46.70;;;;;;;;;;5014410;28;20345;-84
2022/11/28 09:44:25;;;;;;;104.63;49.80;;;;;;;;;;4999950;28;20033;-84
2022/11/28 09:46:53;;;;;;;100.65;44.80;;;;;;;;;;4997523;28;20044;-81
2022/11/28 09:49:44;;;;;;;84.43;38.78;;;;;;;;;;5005385;28;20041;-81
2022/11/28 09:52:32;;;;;;;89.75;44.33;;;;;;;;;;5022551;28;20079;-79
2022/11/28 09:55:21;;;;;;;79.32;39.17;;;;;;;;;;5069270;28;20037;-80
2022/11/28 09:57:48;;;;;;;77.65;36.13;;;;;;;;;;5055455;28;20032;-82
2022/11/28 10:00:20;;;;;;;75.57;36.15;;;;;;;;;;5067935;28;20040;-82
2022/11/28 10:03:12;;;;;;;78.22;36.53;;;;;;;;;;5072591;28;20051;-81
2022/11/28 10:06:05;;;;;;;69.93;34.95;;;;;;;;;;5052173;28;20060;-82
2022/11/28 10:09:05;;;;;;;72.72;33.85;;;;;;;;;;5064815;28;20036;-80
2022/11/28 10:11:39;;;;;;;69.90;34.42;;;;;;;;;;5071308;28;20136;-80
2022/11/28 10:14:22;;;;;;;68.50;34.47;;;;;;;;;;5074542;28;20028;-80
2022/11/28 10:17:13;;;;;;;71.00;35.15;;;;;;;;;;5071046;28;20044;-79
2022/11/28 10:19:41;;;;;;;61.15;31.05;;;;;;;;;;5035407;28;20119;-81
2022/11/28 10:22:12;;;;;;;56.85;30.00;;;;;;;;;;5048540;28;20545;-81
2022/11/28 10:24:38;;;;;;;;;;;;;;;;;;5076452;28;20035;-83
2022/11/28 10:27:04;;;;;;;34.67;16.73;;;;;;;;;;5055921;28;20326;-82
2022/11/28 10:29:43;;;;;;;44.50;22.35;;;;;;;;;;5053737;28;20115;-82
2022/11/28 10:32:20;;;;;;;33.50;16.27;;;;;;;;;;5055314;28;20098;-83
2022/11/28 10:35:00;;;;;;;36.15;19.17;;;;;;;;;;5037422;28;20032;-82
2022/11/28 10:37:27;;;;;;;36.83;17.30;;;;;;;;;;5076467;28;20177;-83
2022/11/28 10:40:25;;;;;;;27.83;14.52;;;;;;;;;;5038719;28;20127;-82
2022/11/28 10:43:11;;;;;;;33.50;16.83;;;;;;;;;;5035199;28;20048;-82
2022/11/28 10:45:49;;;;;;;27.25;13.85;;;;;;;;;;5041689;28;20032;-81
2022/11/28 10:48:21;;;;;;;31.77;16.38;;;;;;;;;;5059766;28;20032;-82
2022/11/28 10:50:48;;;;;;;33.63;16.20;;;;;;;;;;5089246;28;20034;-81
2022/11/28 10:53:39;;;;;;;28.63;15.07;;;;;;;;;;5051010;28;20021;-81
2022/11/28 10:56:19;;;;;;;27.75;13.88;;;;;;;;;;5061849;28;20040;-82
2022/11/28 10:59:22;;;;;;;35.17;19.65;;;;;;;;;;5070390;28;20055;-83
2022/11/28 11:02:15;;;;;;;36.03;17.15;;;;;;;;;;5068849;28;20384;-85
2022/11/28 11:04:40;;;;;;;35.40;19.95;;;;;;;;;;5018288;28;20024;-84
2022/11/28 11:07:15;;;;;;;32.78;16.92;;;;;;;;;;5067419;28;20140;-81
2022/11/28 11:09:41;;;;;;;34.35;16.27;;;;;;;;;;5027417;28;20481;-82
2022/11/28 11:12:12;;;;;;;36.42;18.48;;;;;;;;;;5006646;28;20043;-82
2022/11/28 11:14:40;;;;;;;;;;;;;;;;;;5024918;28;20029;-81
2022/11/28 11:17:06;;;;;;;44.50;21.13;;;;;;;;;;5053118;28;19916;-83
2022/11/28 11:19:33;;;;;;;46.35;17.35;;;;;;;;;;5045389;28;20032;-87
2022/11/28 11:21:59;;;;;;;30.88;14.45;;;;;;;;;;5068412;28;20060;-85
2022/11/28 11:24:25;;;;;;;35.25;17.40;;;;;;;;;;5056627;28;20096;-83
2022/11/28 11:26:50;;;;;;;34.60;18.40;;;;;;;;;;5048819;28;20538;-81
2022/11/28 11:29:28;;;;;;;34.92;16.90;;;;;;;;;;5044694;28;20052;-79
2022/11/28 11:31:53;;;;;;;38.35;18.00;;;;;;;;;;5065748;28;20052;-80
2022/11/28 11:34:20;;;;;;;37.92;19.73;;;;;;;;;;5020422;28;20056;-80
2022/11/28 11:36:46;;;;;;;40.88;18.92;;;;;;;;;;5029221;28;20112;-80
2022/11/28 11:39:11;;;;;;;29.73;15.18;;;;;;;;;;5063730;28;20203;-84
2022/11/28 11:41:44;;;;;;;34.63;18.00;;;;;;;;;;5089550;28;20028;-86
2022/11/28 11:44:12;;;;;;;32.63;18.67;;;;;;;;;;5075509;28;20268;-80
2022/11/28 11:46:59;;;;;;;32.28;16.70;;;;;;;;;;5074118;28;20029;-79
2022/11/28 11:49:28;;;;;;;32.22;16.85;;;;;;;;;;5071014;28;20033;-80
2022/11/28 11:52:05;;;;;;;30.70;15.93;;;;;;;;;;5071842;28;20028;-81
2022/11/28 11:54:31;;;;;;;35.65;17.15;;;;;;;;;;5072074;28;20515;-82
2022/11/28 11:56:56;;;;;;;38.28;19.70;;;;;;;;;;5070031;28;20044;-80
2022/11/28 11:59:33;;;;;;;36.03;18.98;;;;;;;;;;5050917;28;20127;-80
2022/11/28 12:02:05;;;;;;;37.58;17.63;;;;;;;;;;5018998;28;20590;-79
2022/11/28 12:04:33;;;;;;;34.30;16.95;;;;;;;;;;5035781;28;20025;-79
2022/11/28 12:07:01;;;;;;;38.25;18.00;;;;;;;;;;5051396;28;20033;-79
2022/11/28 12:09:26;;;;;;;36.47;18.00;;;;;;;;;;5056498;28;20035;-79
2022/11/28 12:11:58;;;;;;;37.95;19.60;;;;;;;;;;5091411;28;20032;-80
2022/11/28 12:14:34;;;;;;;34.85;16.98;;;;;;;;;;5054255;28;20465;-80
2022/11/28 12:17:33;;;;;;;39.97;20.20;;;;;;;;;;5069267;28;20477;-81
2022/11/28 12:20:29;;;;;;;42.28;19.90;;;;;;;;;;5084813;28;20021;-79
2022/11/28 12:22:57;;;;;;;49.67;21.40;;;;;;;;;;5092128;28;20040;-79
2022/11/28 12:25:52;;;;;;;46.65;22.40;;;;;;;;;;5090608;28;20475;-78
2022/11/28 12:28:35;;;;;;;40.78;19.65;;;;;;;;;;5089198;28;20075;-79
2022/11/28 12:31:09;;;;;;;41.05;19.83;;;;;;;;;;5091056;28;20032;-79
2022/11/28 12:34:03;;;;;;;42.13;20.95;;;;;;;;;;5062514;28;20040;-79
2022/11/28 12:36:36;;;;;;;41.40;19.55;;;;;;;;;;5035243;28;20048;-79
2022/11/28 12:39:14;;;;;;;41.95;20.27;;;;;;;;;;5031907;28;20123;-80
2022/11/28 12:42:00;;;;;;;39.75;19.77;;;;;;;;;;5050481;28;20115;-80
2022/11/28 12:44:51;;;;;;;39.70;18.42;;;;;;;;;;5032853;28;20493;-79
2022/11/28 12:47:16;;;;;;;;;;;;;;;;;;5026845;28;20455;-79
2022/11/28 12:49:54;;;;;;;36.38;18.77;;;;;;;;;;5072896;28;19951;-81
2022/11/28 12:52:41;;;;;;;35.10;17.27;;;;;;;;;;5072729;28;20043;-79
2022/11/28 12:55:21;;;;;;;31.48;15.30;;;;;;;;;;5081515;28;20062;-79
2022/11/28 12:58:16;;;;;;;37.90;18.42;;;;;;;;;;5057739;28;20032;-79
2022/11/28 13:01:01;;;;;;;30.48;15.60;;;;;;;;;;5074082;28;20049;-79
2022/11/28 13:04:27;;;;;;;29.33;15.38;;;;;;;;;;5074004;28;20139;-80
2022/11/28 13:07:39;;;;;;;30.95;16.50;;;;;;;;;;5011831;28;20037;-79
2022/11/28 13:10:23;;;;;;;32.20;17.67;;;;;;;;;;4993445;28;20168;-79
2022/11/28 13:13:02;;;;;;;33.97;17.52;;;;;;;;;;5068851;28;20086;-79
2022/11/28 13:16:16;;;;;;;38.70;18.25;;;;;;;;;;5040905;28;20390;-78
2022/11/28 13:18:53;;;;;;;34.97;17.50;;;;;;;;;;5061008;28;20040;-80
2022/11/28 13:21:18;;;;;;;39.65;17.40;;;;;;;;;;5040869;28;20402;-79
2022/11/28 13:23:46;;;;;;;35.42;18.10;;;;;;;;;;5074689;28;20029;-79
2022/11/28 13:26:27;;;;;;;37.28;16.20;;;;;;;;;;5074348;28;20083;-79
2022/11/28 13:29:30;;;;;;;31.80;15.27;;;;;;;;;;5074357;28;20043;-80
2022/11/28 13:32:21;;;;;;;30.85;16.13;;;;;;;;;;5074252;28;20431;-80
2022/11/28 13:34:46;;;;;;;33.42;16.98;;;;;;;;;;5054087;28;20080;-79
2022/11/28 13:37:20;;;;;;;33.38;16.05;;;;;;;;;;5065151;28;20052;-80
2022/11/28 13:40:14;;;;;;;36.85;18.40;;;;;;;;;;5056884;28;20052;-79
2022/11/28 13:43:06;;;;;;;34.75;17.85;;;;;;;;;;5074598;28;20043;-79
2022/11/28 13:45:32;;;;;;;32.78;17.08;;;;;;;;;;5056602;28;20047;-78
2022/11/28 13:47:59;;;;;;;35.33;18.75;;;;;;;;;;5075046;28;20028;-79
2022/11/28 13:50:35;;;;;;;40.13;20.83;;;;;;;;;;5055535;28;20075;-79
2022/11/28 13:53:07;;;;;;;31.95;16.52;;;;;;;;;;5040179;28;20025;-79
2022/11/28 13:55:43;;;;;;;34.50;18.35;;;;;;;;;;5073781;28;20136;-79
2022/11/28 13:58:28;;;;;;;41.95;20.85;;;;;;;;;;5056501;28;20029;-80
2022/11/28 14:01:02;;;;;;;30.75;15.27;;;;;;;;;;5056003;28;20033;-79
2022/11/28 14:03:27;;;;;;;35.75;17.58;;;;;;;;;;5056952;28;20043;-79
2022/11/28 14:05:54;;;;;;;39.10;17.58;;;;;;;;;;5039464;28;20029;-81
2022/11/28 14:08:46;;;;;;;35.70;16.90;;;;;;;;;;5056147;28;20029;-78
2022/11/28 14:11:20;;;;;;;36.30;18.50;;;;;;;;;;5053737;28;20051;-80
2022/11/28 14:13:53;;;;;;;40.58;18.88;;;;;;;;;;5073262;28;20037;-80
2022/11/28 14:16:40;;;;;;;42.33;21.08;;;;;;;;;;5055841;28;20040;-79
2022/11/28 14:19:21;;;;;;;39.67;20.88;;;;;;;;;;5056014;28;20454;-80
2022/11/28 14:22:11;;;;;;;45.47;21.02;;;;;;;;;;5073675;28;20043;-80
2022/11/28 14:24:58;;;;;;;44.65;21.35;;;;;;;;;;5075524;28;20065;-80
2022/11/28 14:27:29;;;;;;;42.42;20.63;;;;;;;;;;5075473;28;20028;-79
2022/11/28 14:29:55;;;;;;;40.80;21.20;;;;;;;;;;5073734;28;20035;-80
2022/11/28 14:32:35;;;;;;;43.35;21.65;;;;;;;;;;5055765;28;20040;-79
2022/11/28 14:35:01;;;;;;;;;;;;;;;;;;5039620;28;20298;-80
2022/11/28 14:37:36;;;;;;;41.05;20.35;;;;;;;;;;5074033;28;19923;-79
2022/11/28 14:40:02;;;;;;;49.28;22.98;;;;;;;;;;5055668;28;20412;-79
2022/11/28 14:42:27;;;;;;;48.38;22.02;;;;;;;;;;5055877;28;20029;-78
2022/11/28 14:44:59;;;;;;;43.00;20.70;;;;;;;;;;5074811;28;20036;-79
2022/11/28 14:47:34;;;;;;;41.35;18.77;;;;;;;;;;5073305;28;20032;-80